Terminal Aerodrome Forecast
Issued by NWS Houston/Galveston, TX

Home | Current Version | Previous Version | Text Only | Print | Product List | Glossary On
Versions: 1 2 3 4 5 6 7 8 9 10 11 12 13 14 15 16 17 18 19 20 21 22 23 24 25 26 27 28 29 30 31 32 33 34 35 36 37 38 39 40 41 42 43 44
000
FTUS44 KHGX 211120
TAFCLL
TAF
KCLL 211120Z 2112/2212 16008KT P6SM BKN006
     FM211400 18011KT P6SM SCT015
     FM211700 17014KT P6SM FEW050
     FM212100 17014KT P6SM SCT060
     FM220100 17008KT P6SM SKC
     FM220900 17005KT P6SM BKN012=

USA.gov is the U.S. government's official web portal to all federal, state and local government web resources and services.